Terminal Aerodrome Forecast
Issued by NWS Charleston, WV

Current Version | Previous Version | Text Only | Print | Product List | Glossary Off
Versions: 1 2 3 4 5 6 7 8 9 10 11 12 13 14 15 16 17 18 19 20 21

000
FTUS41 KRLX 012300
TAFHTS
TAF
KHTS 012330Z 0200/0224 20005KT 2SM -RA BR OVC012
      TEMPO 0202/0205 3SM SCT009
     FM020500 VRB03KT 3SM BR OVC009
     FM020800 28005KT P6SM BKN015
     FM021400 30004KT P6SM BKN025
     FM021900 33004KT P6SM SCT020=

USA.gov is the U.S. government's official web portal to all federal, state and local government web resources and services.